sensor_id;sensor_type;location;lat;lon;timestamp;P1;durP1;ratioP1;P2;durP2;ratioP2
7813;SDS011;3952;48.364;16.022;2023-05-07T00:01:57;4.50;;;4.10;;
7813;SDS011;3952;48.364;16.022;2023-05-07T00:04:25;4.50;;;4.27;;
7813;SDS011;3952;48.364;16.022;2023-05-07T00:06:53;4.23;;;4.03;;
7813;SDS011;3952;48.364;16.022;2023-05-07T00:09:21;4.37;;;4.10;;
7813;SDS011;3952;48.364;16.022;2023-05-07T00:11:49;4.63;;;4.37;;
7813;SDS011;3952;48.364;16.022;2023-05-07T00:14:16;4.10;;;3.90;;
7813;SDS011;3952;48.364;16.022;2023-05-07T00:16:43;4.70;;;4.40;;
7813;SDS011;3952;48.364;16.022;2023-05-07T00:19:10;3.87;;;3.67;;
7813;SDS011;3952;48.364;16.022;2023-05-07T00:21:37;4.20;;;4.00;;
7813;SDS011;3952;48.364;16.022;2023-05-07T00:24:05;4.00;;;3.80;;
7813;SDS011;3952;48.364;16.022;2023-05-07T00:26:33;4.53;;;4.10;;
7813;SDS011;3952;48.364;16.022;2023-05-07T00:29:00;4.07;;;3.87;;
7813;SDS011;3952;48.364;16.022;2023-05-07T00:31:28;4.23;;;3.90;;
7813;SDS011;3952;48.364;16.022;2023-05-07T00:33:55;4.23;;;4.00;;
7813;SDS011;3952;48.364;16.022;2023-05-07T00:36:22;5.57;;;3.90;;
7813;SDS011;3952;48.364;16.022;2023-05-07T00:38:49;4.00;;;3.80;;
7813;SDS011;3952;48.364;16.022;2023-05-07T00:41:16;3.63;;;3.50;;
7813;SDS011;3952;48.364;16.022;2023-05-07T00:43:45;4.20;;;4.00;;
7813;SDS011;3952;48.364;16.022;2023-05-07T00:46:12;4.10;;;3.67;;
7813;SDS011;3952;48.364;16.022;2023-05-07T00:48:41;3.63;;;3.43;;
7813;SDS011;3952;48.364;16.022;2023-05-07T00:51:08;3.20;;;3.10;;
7813;SDS011;3952;48.364;16.022;2023-05-07T00:53:37;3.63;;;3.43;;
7813;SDS011;3952;48.364;16.022;2023-05-07T00:56:05;3.70;;;3.47;;
7813;SDS011;3952;48.364;16.022;2023-05-07T00:58:33;3.70;;;3.50;;
7813;SDS011;3952;48.364;16.022;2023-05-07T01:01:02;3.33;;;3.23;;
7813;SDS011;3952;48.364;16.022;2023-05-07T01:03:29;3.80;;;3.60;;
7813;SDS011;3952;48.364;16.022;2023-05-07T01:05:56;4.33;;;4.00;;
7813;SDS011;3952;48.364;16.022;2023-05-07T01:08:25;4.33;;;4.13;;
7813;SDS011;3952;48.364;16.022;2023-05-07T01:10:54;4.50;;;4.30;;
7813;SDS011;3952;48.364;16.022;2023-05-07T01:13:22;4.90;;;4.50;;
7813;SDS011;3952;48.364;16.022;2023-05-07T01:15:50;5.10;;;4.60;;
7813;SDS011;3952;48.364;16.022;2023-05-07T01:18:19;4.47;;;4.23;;
7813;SDS011;3952;48.364;16.022;2023-05-07T01:20:47;4.43;;;4.17;;
7813;SDS011;3952;48.364;16.022;2023-05-07T01:23:15;4.37;;;4.07;;
7813;SDS011;3952;48.364;16.022;2023-05-07T01:25:50;4.50;;;4.20;;
7813;SDS011;3952;48.364;16.022;2023-05-07T01:28:18;4.30;;;4.00;;
7813;SDS011;3952;48.364;16.022;2023-05-07T01:30:46;4.40;;;4.20;;
7813;SDS011;3952;48.364;16.022;2023-05-07T01:33:15;4.23;;;4.03;;
7813;SDS011;3952;48.364;16.022;2023-05-07T01:35:47;4.97;;;4.67;;
7813;SDS011;3952;48.364;16.022;2023-05-07T01:38:19;5.43;;;5.03;;
7813;SDS011;3952;48.364;16.022;2023-05-07T01:40:48;10.63;;;4.87;;
7813;SDS011;3952;48.364;16.022;2023-05-07T01:43:16;5.00;;;4.63;;
7813;SDS011;3952;48.364;16.022;2023-05-07T01:45:44;4.40;;;4.07;;
7813;SDS011;3952;48.364;16.022;2023-05-07T01:48:14;4.57;;;4.27;;
7813;SDS011;3952;48.364;16.022;2023-05-07T01:50:42;4.23;;;4.00;;
7813;SDS011;3952;48.364;16.022;2023-05-07T01:53:10;4.97;;;4.67;;
7813;SDS011;3952;48.364;16.022;2023-05-07T01:55:39;4.67;;;4.40;;
7813;SDS011;3952;48.364;16.022;2023-05-07T01:58:06;4.57;;;4.37;;
7813;SDS011;3952;48.364;16.022;2023-05-07T02:00:33;4.00;;;3.80;;
7813;SDS011;3952;48.364;16.022;2023-05-07T02:03:00;4.00;;;3.70;;
7813;SDS011;3952;48.364;16.022;2023-05-07T02:05:27;4.57;;;4.37;;
7813;SDS011;3952;48.364;16.022;2023-05-07T02:07:55;4.17;;;3.87;;
7813;SDS011;3952;48.364;16.022;2023-05-07T02:10:22;4.30;;;4.10;;
7813;SDS011;3952;48.364;16.022;2023-05-07T02:12:50;3.57;;;3.47;;
7813;SDS011;3952;48.364;16.022;2023-05-07T02:15:18;3.53;;;3.43;;
7813;SDS011;3952;48.364;16.022;2023-05-07T02:17:58;3.20;;;3.10;;
7813;SDS011;3952;48.364;16.022;2023-05-07T02:20:26;3.77;;;3.57;;
7813;SDS011;3952;48.364;16.022;2023-05-07T02:22:54;4.53;;;4.13;;
7813;SDS011;3952;48.364;16.022;2023-05-07T02:25:21;3.50;;;3.40;;
7813;SDS011;3952;48.364;16.022;2023-05-07T02:27:48;3.90;;;3.70;;
7813;SDS011;3952;48.364;16.022;2023-05-07T02:30:17;4.90;;;4.50;;
7813;SDS011;3952;48.364;16.022;2023-05-07T02:32:46;4.90;;;4.60;;
7813;SDS011;3952;48.364;16.022;2023-05-07T02:35:13;4.17;;;3.97;;
7813;SDS011;3952;48.364;16.022;2023-05-07T02:37:40;4.77;;;4.40;;
7813;SDS011;3952;48.364;16.022;2023-05-07T02:40:08;4.70;;;4.30;;
7813;SDS011;3952;48.364;16.022;2023-05-07T02:42:36;5.43;;;5.13;;
7813;SDS011;3952;48.364;16.022;2023-05-07T02:45:03;5.47;;;5.07;;
7813;SDS011;3952;48.364;16.022;2023-05-07T02:47:33;5.17;;;4.87;;
7813;SDS011;3952;48.364;16.022;2023-05-07T02:50:00;5.20;;;4.90;;
7813;SDS011;3952;48.364;16.022;2023-05-07T02:52:27;5.10;;;4.80;;
7813;SDS011;3952;48.364;16.022;2023-05-07T02:54:54;5.03;;;4.73;;
7813;SDS011;3952;48.364;16.022;2023-05-07T02:57:21;5.03;;;4.83;;
7813;SDS011;3952;48.364;16.022;2023-05-07T02:59:48;5.83;;;5.53;;
7813;SDS011;3952;48.364;16.022;2023-05-07T03:02:15;5.47;;;5.17;;
7813;SDS011;3952;48.364;16.022;2023-05-07T03:04:44;4.93;;;4.63;;
7813;SDS011;3952;48.364;16.022;2023-05-07T03:07:11;5.70;;;5.27;;
7813;SDS011;3952;48.364;16.022;2023-05-07T03:09:39;5.70;;;4.87;;
7813;SDS011;3952;48.364;16.022;2023-05-07T03:12:06;5.77;;;5.27;;
7813;SDS011;3952;48.364;16.022;2023-05-07T03:14:34;6.07;;;5.63;;
7813;SDS011;3952;48.364;16.022;2023-05-07T03:17:01;5.90;;;5.60;;
7813;SDS011;3952;48.364;16.022;2023-05-07T03:19:28;5.83;;;5.43;;
7813;SDS011;3952;48.364;16.022;2023-05-07T03:21:57;6.53;;;6.13;;
7813;SDS011;3952;48.364;16.022;2023-05-07T03:24:24;7.17;;;6.77;;
7813;SDS011;3952;48.364;16.022;2023-05-07T03:26:51;7.27;;;6.60;;
7813;SDS011;3952;48.364;16.022;2023-05-07T03:29:19;6.80;;;6.23;;
7813;SDS011;3952;48.364;16.022;2023-05-07T03:31:46;7.73;;;7.20;;
7813;SDS011;3952;48.364;16.022;2023-05-07T03:34:13;7.77;;;7.03;;
7813;SDS011;3952;48.364;16.022;2023-05-07T03:36:42;9.20;;;8.47;;
7813;SDS011;3952;48.364;16.022;2023-05-07T03:39:10;8.93;;;8.27;;
7813;SDS011;3952;48.364;16.022;2023-05-07T03:41:38;9.43;;;8.67;;
7813;SDS011;3952;48.364;16.022;2023-05-07T03:44:05;9.97;;;9.23;;
7813;SDS011;3952;48.364;16.022;2023-05-07T03:46:33;8.87;;;8.17;;
7813;SDS011;3952;48.364;16.022;2023-05-07T03:49:00;8.87;;;8.27;;
7813;SDS011;3952;48.364;16.022;2023-05-07T03:51:27;9.83;;;8.37;;
7813;SDS011;3952;48.364;16.022;2023-05-07T03:53:55;9.00;;;8.20;;
7813;SDS011;3952;48.364;16.022;2023-05-07T03:56:24;8.90;;;8.30;;
7813;SDS011;3952;48.364;16.022;2023-05-07T03:58:52;8.87;;;8.37;;
7813;SDS011;3952;48.364;16.022;2023-05-07T04:01:20;9.37;;;8.67;;
7813;SDS011;3952;48.364;16.022;2023-05-07T04:03:47;10.17;;;9.37;;
7813;SDS011;3952;48.364;16.022;2023-05-07T04:06:15;10.60;;;9.80;;
7813;SDS011;3952;48.364;16.022;2023-05-07T04:08:43;10.73;;;9.67;;
7813;SDS011;3952;48.364;16.022;2023-05-07T04:11:10;9.87;;;9.17;;
7813;SDS011;3952;48.364;16.022;2023-05-07T04:13:39;9.90;;;9.20;;
7813;SDS011;3952;48.364;16.022;2023-05-07T04:16:06;9.10;;;8.50;;
7813;SDS011;3952;48.364;16.022;2023-05-07T04:18:33;9.20;;;8.60;;
7813;SDS011;3952;48.364;16.022;2023-05-07T04:21:00;8.70;;;8.10;;
7813;SDS011;3952;48.364;16.022;2023-05-07T04:23:27;8.57;;;8.07;;
7813;SDS011;3952;48.364;16.022;2023-05-07T04:25:55;9.27;;;8.60;;
7813;SDS011;3952;48.364;16.022;2023-05-07T04:28:22;8.67;;;8.17;;
7813;SDS011;3952;48.364;16.022;2023-05-07T04:30:51;10.30;;;9.33;;
7813;SDS011;3952;48.364;16.022;2023-05-07T04:33:18;9.00;;;8.40;;
7813;SDS011;3952;48.364;16.022;2023-05-07T04:35:45;9.93;;;9.23;;
7813;SDS011;3952;48.364;16.022;2023-05-07T04:38:12;9.17;;;8.57;;
7813;SDS011;3952;48.364;16.022;2023-05-07T04:40:39;9.67;;;9.10;;
7813;SDS011;3952;48.364;16.022;2023-05-07T04:43:07;10.20;;;9.40;;
7813;SDS011;3952;48.364;16.022;2023-05-07T04:45:35;10.30;;;9.57;;
7813;SDS011;3952;48.364;16.022;2023-05-07T04:48:04;11.30;;;10.23;;
7813;SDS011;3952;48.364;16.022;2023-05-07T04:50:32;12.53;;;10.80;;
7813;SDS011;3952;48.364;16.022;2023-05-07T04:52:59;10.70;;;9.93;;
7813;SDS011;3952;48.364;16.022;2023-05-07T04:55:26;11.10;;;10.40;;
7813;SDS011;3952;48.364;16.022;2023-05-07T04:57:53;10.90;;;10.10;;
7813;SDS011;3952;48.364;16.022;2023-05-07T05:00:20;11.13;;;10.37;;
7813;SDS011;3952;48.364;16.022;2023-05-07T05:02:48;10.60;;;9.83;;
7813;SDS011;3952;48.364;16.022;2023-05-07T05:05:16;10.37;;;9.67;;
7813;SDS011;3952;48.364;16.022;2023-05-07T05:07:44;11.10;;;10.30;;
7813;SDS011;3952;48.364;16.022;2023-05-07T05:10:11;11.07;;;10.27;;
7813;SDS011;3952;48.364;16.022;2023-05-07T05:12:39;11.33;;;10.33;;
7813;SDS011;3952;48.364;16.022;2023-05-07T05:15:06;11.00;;;10.30;;
7813;SDS011;3952;48.364;16.022;2023-05-07T05:17:35;10.57;;;9.87;;
7813;SDS011;3952;48.364;16.022;2023-05-07T05:20:03;11.53;;;10.63;;
7813;SDS011;3952;48.364;16.022;2023-05-07T05:22:32;12.47;;;11.40;;
7813;SDS011;3952;48.364;16.022;2023-05-07T05:24:59;11.80;;;11.00;;
7813;SDS011;3952;48.364;16.022;2023-05-07T05:27:27;11.60;;;10.80;;
7813;SDS011;3952;48.364;16.022;2023-05-07T05:29:54;11.77;;;10.87;;
7813;SDS011;3952;48.364;16.022;2023-05-07T05:32:22;11.30;;;10.50;;
7813;SDS011;3952;48.364;16.022;2023-05-07T05:34:49;11.33;;;10.63;;
7813;SDS011;3952;48.364;16.022;2023-05-07T05:37:16;11.93;;;11.03;;
7813;SDS011;3952;48.364;16.022;2023-05-07T05:39:45;11.87;;;10.87;;
7813;SDS011;3952;48.364;16.022;2023-05-07T05:42:12;13.23;;;12.00;;
7813;SDS011;3952;48.364;16.022;2023-05-07T05:44:39;13.07;;;12.07;;
7813;SDS011;3952;48.364;16.022;2023-05-07T05:47:06;13.23;;;12.23;;
7813;SDS011;3952;48.364;16.022;2023-05-07T05:49:33;13.83;;;12.70;;
7813;SDS011;3952;48.364;16.022;2023-05-07T05:52:00;13.70;;;12.50;;
7813;SDS011;3952;48.364;16.022;2023-05-07T05:54:28;15.07;;;13.67;;
7813;SDS011;3952;48.364;16.022;2023-05-07T05:56:56;14.30;;;13.00;;
7813;SDS011;3952;48.364;16.022;2023-05-07T05:59:24;14.33;;;13.13;;
7813;SDS011;3952;48.364;16.022;2023-05-07T06:01:51;14.20;;;13.03;;
7813;SDS011;3952;48.364;16.022;2023-05-07T06:04:18;14.00;;;12.80;;
7813;SDS011;3952;48.364;16.022;2023-05-07T06:06:45;13.87;;;12.60;;
7813;SDS011;3952;48.364;16.022;2023-05-07T06:09:12;13.73;;;12.53;;
7813;SDS011;3952;48.364;16.022;2023-05-07T06:11:40;13.57;;;12.20;;
7813;SDS011;3952;48.364;16.022;2023-05-07T06:14:08;14.43;;;13.23;;
7813;SDS011;3952;48.364;16.022;2023-05-07T06:16:35;13.97;;;12.73;;
7813;SDS011;3952;48.364;16.022;2023-05-07T06:19:03;13.23;;;12.20;;
7813;SDS011;3952;48.364;16.022;2023-05-07T06:21:30;13.50;;;12.40;;
7813;SDS011;3952;48.364;16.022;2023-05-07T06:23:57;12.77;;;11.87;;
7813;SDS011;3952;48.364;16.022;2023-05-07T06:26:24;12.77;;;11.60;;
7813;SDS011;3952;48.364;16.022;2023-05-07T06:28:51;13.13;;;12.13;;
7813;SDS011;3952;48.364;16.022;2023-05-07T06:31:20;14.07;;;12.70;;
7813;SDS011;3952;48.364;16.022;2023-05-07T06:33:47;12.80;;;11.77;;
7813;SDS011;3952;48.364;16.022;2023-05-07T06:36:15;13.20;;;11.87;;
7813;SDS011;3952;48.364;16.022;2023-05-07T06:38:42;12.57;;;11.63;;
7813;SDS011;3952;48.364;16.022;2023-05-07T06:41:09;12.67;;;11.67;;
7813;SDS011;3952;48.364;16.022;2023-05-07T06:43:36;13.37;;;12.03;;
7813;SDS011;3952;48.364;16.022;2023-05-07T06:46:03;13.67;;;12.53;;
7813;SDS011;3952;48.364;16.022;2023-05-07T06:48:32;13.30;;;12.30;;
7813;SDS011;3952;48.364;16.022;2023-05-07T06:50:59;13.80;;;12.70;;
7813;SDS011;3952;48.364;16.022;2023-05-07T06:53:26;13.57;;;12.40;;
7813;SDS011;3952;48.364;16.022;2023-05-07T06:55:55;13.47;;;12.47;;
7813;SDS011;3952;48.364;16.022;2023-05-07T06:58:22;14.23;;;12.93;;
7813;SDS011;3952;48.364;16.022;2023-05-07T07:00:50;14.43;;;13.27;;
7813;SDS011;3952;48.364;16.022;2023-05-07T07:03:17;14.00;;;13.00;;
7813;SDS011;3952;48.364;16.022;2023-05-07T07:05:45;13.97;;;12.87;;
7813;SDS011;3952;48.364;16.022;2023-05-07T07:08:13;14.43;;;13.33;;
7813;SDS011;3952;48.364;16.022;2023-05-07T07:10:42;14.93;;;13.47;;
7813;SDS011;3952;48.364;16.022;2023-05-07T07:13:09;14.03;;;12.87;;
7813;SDS011;3952;48.364;16.022;2023-05-07T07:15:36;14.43;;;13.30;;
7813;SDS011;3952;48.364;16.022;2023-05-07T07:18:03;14.60;;;13.50;;
7813;SDS011;3952;48.364;16.022;2023-05-07T07:20:31;14.80;;;13.00;;
7813;SDS011;3952;48.364;16.022;2023-05-07T07:22:59;13.80;;;12.57;;
7813;SDS011;3952;48.364;16.022;2023-05-07T07:25:27;14.37;;;13.00;;
7813;SDS011;3952;48.364;16.022;2023-05-07T07:27:54;14.70;;;13.50;;
7813;SDS011;3952;48.364;16.022;2023-05-07T07:30:21;13.97;;;12.93;;
7813;SDS011;3952;48.364;16.022;2023-05-07T07:32:48;15.33;;;14.07;;
7813;SDS011;3952;48.364;16.022;2023-05-07T07:35:16;15.17;;;13.77;;
7813;SDS011;3952;48.364;16.022;2023-05-07T07:37:44;15.37;;;14.07;;
7813;SDS011;3952;48.364;16.022;2023-05-07T07:40:13;15.10;;;13.77;;
7813;SDS011;3952;48.364;16.022;2023-05-07T07:42:40;15.50;;;14.20;;
7813;SDS011;3952;48.364;16.022;2023-05-07T07:45:08;16.60;;;15.03;;
7813;SDS011;3952;48.364;16.022;2023-05-07T07:47:35;16.17;;;14.73;;
7813;SDS011;3952;48.364;16.022;2023-05-07T07:50:03;16.03;;;14.53;;
7813;SDS011;3952;48.364;16.022;2023-05-07T07:52:32;15.10;;;13.87;;
7813;SDS011;3952;48.364;16.022;2023-05-07T07:55:00;16.23;;;14.93;;
7813;SDS011;3952;48.364;16.022;2023-05-07T07:57:28;14.30;;;13.10;;
7813;SDS011;3952;48.364;16.022;2023-05-07T07:59:55;15.50;;;14.10;;
7813;SDS011;3952;48.364;16.022;2023-05-07T08:02:23;15.50;;;14.10;;
7813;SDS011;3952;48.364;16.022;2023-05-07T08:04:50;16.27;;;14.53;;
7813;SDS011;3952;48.364;16.022;2023-05-07T08:07:17;14.80;;;13.60;;
7813;SDS011;3952;48.364;16.022;2023-05-07T08:09:45;15.13;;;13.77;;
7813;SDS011;3952;48.364;16.022;2023-05-07T08:12:13;14.13;;;13.07;;
7813;SDS011;3952;48.364;16.022;2023-05-07T08:14:42;14.90;;;13.47;;
7813;SDS011;3952;48.364;16.022;2023-05-07T08:17:09;15.23;;;13.77;;
7813;SDS011;3952;48.364;16.022;2023-05-07T08:19:36;14.27;;;13.13;;
7813;SDS011;3952;48.364;16.022;2023-05-07T08:22:04;13.60;;;12.60;;
7813;SDS011;3952;48.364;16.022;2023-05-07T08:24:31;14.27;;;13.23;;
7813;SDS011;3952;48.364;16.022;2023-05-07T08:26:59;13.10;;;12.00;;
7813;SDS011;3952;48.364;16.022;2023-05-07T08:29:26;15.17;;;13.77;;
7813;SDS011;3952;48.364;16.022;2023-05-07T08:31:54;14.37;;;13.20;;
7813;SDS011;3952;48.364;16.022;2023-05-07T08:34:22;13.00;;;12.10;;
7813;SDS011;3952;48.364;16.022;2023-05-07T08:36:49;13.83;;;12.73;;
7813;SDS011;3952;48.364;16.022;2023-05-07T08:39:16;14.80;;;13.67;;
7813;SDS011;3952;48.364;16.022;2023-05-07T08:41:44;13.43;;;12.43;;
7813;SDS011;3952;48.364;16.022;2023-05-07T08:44:12;13.27;;;12.27;;
7813;SDS011;3952;48.364;16.022;2023-05-07T08:46:41;12.87;;;12.07;;
7813;SDS011;3952;48.364;16.022;2023-05-07T08:49:10;13.63;;;12.63;;
7813;SDS011;3952;48.364;16.022;2023-05-07T08:51:37;14.33;;;12.83;;
7813;SDS011;3952;48.364;16.022;2023-05-07T08:54:04;14.93;;;13.87;;
7813;SDS011;3952;48.364;16.022;2023-05-07T08:56:33;14.77;;;13.53;;
7813;SDS011;3952;48.364;16.022;2023-05-07T08:59:00;15.63;;;14.33;;
7813;SDS011;3952;48.364;16.022;2023-05-07T09:01:28;14.27;;;13.27;;
7813;SDS011;3952;48.364;16.022;2023-05-07T09:03:56;14.10;;;13.17;;
7813;SDS011;3952;48.364;16.022;2023-05-07T09:06:25;14.40;;;13.17;;
7813;SDS011;3952;48.364;16.022;2023-05-07T09:08:53;14.27;;;13.17;;
7813;SDS011;3952;48.364;16.022;2023-05-07T09:11:22;13.37;;;12.47;;
7813;SDS011;3952;48.364;16.022;2023-05-07T09:13:53;13.93;;;12.93;;
7813;SDS011;3952;48.364;16.022;2023-05-07T09:16:21;14.20;;;13.30;;
7813;SDS011;3952;48.364;16.022;2023-05-07T09:18:51;13.80;;;12.70;;
7813;SDS011;3952;48.364;16.022;2023-05-07T09:21:20;13.63;;;12.63;;
7813;SDS011;3952;48.364;16.022;2023-05-07T09:23:49;13.20;;;12.10;;
7813;SDS011;3952;48.364;16.022;2023-05-07T09:26:17;15.00;;;13.77;;
7813;SDS011;3952;48.364;16.022;2023-05-07T09:28:45;15.57;;;14.17;;
7813;SDS011;3952;48.364;16.022;2023-05-07T09:31:12;14.80;;;13.70;;
7813;SDS011;3952;48.364;16.022;2023-05-07T09:33:39;14.60;;;12.87;;
7813;SDS011;3952;48.364;16.022;2023-05-07T09:36:07;14.53;;;13.00;;
7813;SDS011;3952;48.364;16.022;2023-05-07T09:38:36;13.53;;;12.53;;
7813;SDS011;3952;48.364;16.022;2023-05-07T09:41:06;13.00;;;11.83;;
7813;SDS011;3952;48.364;16.022;2023-05-07T09:43:35;12.87;;;11.70;;
7813;SDS011;3952;48.364;16.022;2023-05-07T09:46:03;12.23;;;11.13;;
7813;SDS011;3952;48.364;16.022;2023-05-07T09:48:34;12.30;;;11.50;;
7813;SDS011;3952;48.364;16.022;2023-05-07T09:51:06;13.40;;;12.40;;
7813;SDS011;3952;48.364;16.022;2023-05-07T09:53:48;12.87;;;11.97;;
7813;SDS011;3952;48.364;16.022;2023-05-07T09:56:18;12.23;;;11.43;;
7813;SDS011;3952;48.364;16.022;2023-05-07T09:58:46;13.17;;;12.27;;
7813;SDS011;3952;48.364;16.022;2023-05-07T10:01:14;12.93;;;12.03;;
7813;SDS011;3952;48.364;16.022;2023-05-07T10:03:44;14.47;;;13.13;;
7813;SDS011;3952;48.364;16.022;2023-05-07T10:06:13;14.07;;;12.87;;
7813;SDS011;3952;48.364;16.022;2023-05-07T10:08:41;12.97;;;11.97;;
7813;SDS011;3952;48.364;16.022;2023-05-07T10:11:09;12.73;;;11.83;;
7813;SDS011;3952;48.364;16.022;2023-05-07T10:13:38;13.07;;;12.07;;
7813;SDS011;3952;48.364;16.022;2023-05-07T10:16:06;12.83;;;11.83;;
7813;SDS011;3952;48.364;16.022;2023-05-07T10:18:33;14.37;;;12.97;;
7813;SDS011;3952;48.364;16.022;2023-05-07T10:21:02;12.10;;;11.20;;
7813;SDS011;3952;48.364;16.022;2023-05-07T10:23:34;12.63;;;11.73;;
7813;SDS011;3952;48.364;16.022;2023-05-07T10:26:02;12.77;;;11.87;;
7813;SDS011;3952;48.364;16.022;2023-05-07T10:28:31;13.10;;;12.13;;
7813;SDS011;3952;48.364;16.022;2023-05-07T10:31:14;12.90;;;11.93;;
7813;SDS011;3952;48.364;16.022;2023-05-07T10:33:49;13.10;;;12.20;;
7813;SDS011;3952;48.364;16.022;2023-05-07T10:36:19;11.83;;;11.03;;
7813;SDS011;3952;48.364;16.022;2023-05-07T10:38:47;11.67;;;10.87;;
7813;SDS011;3952;48.364;16.022;2023-05-07T10:41:14;12.17;;;11.27;;
7813;SDS011;3952;48.364;16.022;2023-05-07T10:43:44;12.27;;;11.27;;
7813;SDS011;3952;48.364;16.022;2023-05-07T10:46:14;12.30;;;11.20;;
7813;SDS011;3952;48.364;16.022;2023-05-07T10:51:41;10.13;;;9.47;;
7813;SDS011;3952;48.364;16.022;2023-05-07T10:54:18;10.73;;;9.93;;
7813;SDS011;3952;48.364;16.022;2023-05-07T10:56:50;10.23;;;9.53;;
7813;SDS011;3952;48.364;16.022;2023-05-07T10:59:30;10.63;;;9.83;;
7813;SDS011;3952;48.364;16.022;2023-05-07T11:02:09;10.47;;;9.87;;
7813;SDS011;3952;48.364;16.022;2023-05-07T11:04:39;10.33;;;9.50;;
7813;SDS011;3952;48.364;16.022;2023-05-07T11:07:18;10.17;;;9.40;;
7813;SDS011;3952;48.364;16.022;2023-05-07T11:09:54;11.37;;;10.47;;
7813;SDS011;3952;48.364;16.022;2023-05-07T11:12:48;10.77;;;9.90;;
7813;SDS011;3952;48.364;16.022;2023-05-07T11:18:11;11.90;;;10.90;;
7813;SDS011;3952;48.364;16.022;2023-05-07T11:20:45;11.77;;;10.87;;
7813;SDS011;3952;48.364;16.022;2023-05-07T11:26:41;11.20;;;10.30;;
7813;SDS011;3952;48.364;16.022;2023-05-07T11:29:11;10.87;;;9.93;;
7813;SDS011;3952;48.364;16.022;2023-05-07T11:31:39;10.60;;;9.90;;
7813;SDS011;3952;48.364;16.022;2023-05-07T11:34:09;10.30;;;9.60;;
7813;SDS011;3952;48.364;16.022;2023-05-07T11:36:41;10.13;;;9.53;;
7813;SDS011;3952;48.364;16.022;2023-05-07T11:39:29;9.50;;;8.90;;
7813;SDS011;3952;48.364;16.022;2023-05-07T11:41:58;10.77;;;10.07;;
7813;SDS011;3952;48.364;16.022;2023-05-07T11:44:39;9.93;;;9.33;;
7813;SDS011;3952;48.364;16.022;2023-05-07T11:47:07;10.10;;;9.40;;
7813;SDS011;3952;48.364;16.022;2023-05-07T11:49:37;9.97;;;9.27;;
7813;SDS011;3952;48.364;16.022;2023-05-07T11:52:05;10.43;;;9.73;;
7813;SDS011;3952;48.364;16.022;2023-05-07T11:54:34;9.67;;;8.97;;
7813;SDS011;3952;48.364;16.022;2023-05-07T11:57:03;9.57;;;8.97;;
7813;SDS011;3952;48.364;16.022;2023-05-07T11:59:37;9.07;;;8.47;;
7813;SDS011;3952;48.364;16.022;2023-05-07T12:02:05;8.57;;;7.80;;
7813;SDS011;3952;48.364;16.022;2023-05-07T12:04:32;9.13;;;8.33;;
7813;SDS011;3952;48.364;16.022;2023-05-07T12:07:01;8.33;;;7.73;;
7813;SDS011;3952;48.364;16.022;2023-05-07T12:09:28;8.90;;;8.40;;
7813;SDS011;3952;48.364;16.022;2023-05-07T12:11:56;9.17;;;8.47;;
7813;SDS011;3952;48.364;16.022;2023-05-07T12:14:27;9.13;;;8.43;;
7813;SDS011;3952;48.364;16.022;2023-05-07T12:16:55;9.83;;;9.23;;
7813;SDS011;3952;48.364;16.022;2023-05-07T12:19:22;9.63;;;8.97;;
7813;SDS011;3952;48.364;16.022;2023-05-07T12:21:50;9.57;;;8.93;;
7813;SDS011;3952;48.364;16.022;2023-05-07T12:24:18;10.23;;;9.53;;
7813;SDS011;3952;48.364;16.022;2023-05-07T12:26:46;10.93;;;10.23;;
7813;SDS011;3952;48.364;16.022;2023-05-07T12:29:14;9.73;;;9.03;;
7813;SDS011;3952;48.364;16.022;2023-05-07T12:31:41;9.43;;;8.83;;
7813;SDS011;3952;48.364;16.022;2023-05-07T12:34:10;8.70;;;8.10;;
7813;SDS011;3952;48.364;16.022;2023-05-07T12:36:37;9.20;;;8.60;;
7813;SDS011;3952;48.364;16.022;2023-05-07T12:39:05;10.40;;;9.67;;
7813;SDS011;3952;48.364;16.022;2023-05-07T12:41:43;8.57;;;8.00;;
7813;SDS011;3952;48.364;16.022;2023-05-07T12:44:21;8.67;;;8.07;;
7813;SDS011;3952;48.364;16.022;2023-05-07T12:46:49;8.17;;;7.57;;
7813;SDS011;3952;48.364;16.022;2023-05-07T12:49:16;7.77;;;7.33;;
7813;SDS011;3952;48.364;16.022;2023-05-07T12:51:44;8.23;;;7.63;;
7813;SDS011;3952;48.364;16.022;2023-05-07T12:54:13;8.53;;;7.83;;
7813;SDS011;3952;48.364;16.022;2023-05-07T12:56:42;8.07;;;7.57;;
7813;SDS011;3952;48.364;16.022;2023-05-07T12:59:09;7.50;;;7.10;;
7813;SDS011;3952;48.364;16.022;2023-05-07T13:01:36;9.03;;;8.23;;
7813;SDS011;3952;48.364;16.022;2023-05-07T13:04:03;7.70;;;7.20;;
7813;SDS011;3952;48.364;16.022;2023-05-07T13:06:31;7.40;;;6.90;;
7813;SDS011;3952;48.364;16.022;2023-05-07T13:08:58;7.73;;;7.23;;
7813;SDS011;3952;48.364;16.022;2023-05-07T13:11:25;8.27;;;7.67;;
7813;SDS011;3952;48.364;16.022;2023-05-07T13:13:54;7.43;;;6.93;;
7813;SDS011;3952;48.364;16.022;2023-05-07T13:16:21;8.50;;;8.00;;
7813;SDS011;3952;48.364;16.022;2023-05-07T13:18:48;7.80;;;7.30;;
7813;SDS011;3952;48.364;16.022;2023-05-07T13:21:15;6.80;;;6.30;;
7813;SDS011;3952;48.364;16.022;2023-05-07T13:23:42;7.70;;;7.20;;
7813;SDS011;3952;48.364;16.022;2023-05-07T13:26:09;6.67;;;6.27;;
7813;SDS011;3952;48.364;16.022;2023-05-07T13:28:36;7.90;;;7.40;;
7813;SDS011;3952;48.364;16.022;2023-05-07T13:31:05;6.93;;;6.53;;
7813;SDS011;3952;48.364;16.022;2023-05-07T13:33:32;6.93;;;6.50;;
7813;SDS011;3952;48.364;16.022;2023-05-07T13:35:59;6.93;;;6.53;;
7813;SDS011;3952;48.364;16.022;2023-05-07T13:38:28;6.43;;;6.00;;
7813;SDS011;3952;48.364;16.022;2023-05-07T13:40:56;6.03;;;5.70;;
7813;SDS011;3952;48.364;16.022;2023-05-07T13:43:23;6.47;;;6.07;;
7813;SDS011;3952;48.364;16.022;2023-05-07T13:45:50;6.13;;;5.77;;
7813;SDS011;3952;48.364;16.022;2023-05-07T13:48:19;5.50;;;5.20;;
7813;SDS011;3952;48.364;16.022;2023-05-07T13:50:46;6.40;;;6.00;;
7813;SDS011;3952;48.364;16.022;2023-05-07T13:53:13;5.97;;;5.47;;
7813;SDS011;3952;48.364;16.022;2023-05-07T13:55:43;6.13;;;5.63;;
7813;SDS011;3952;48.364;16.022;2023-05-07T13:58:10;5.80;;;5.40;;
7813;SDS011;3952;48.364;16.022;2023-05-07T14:00:38;6.13;;;5.67;;
7813;SDS011;3952;48.364;16.022;2023-05-07T14:03:05;6.13;;;5.73;;
7813;SDS011;3952;48.364;16.022;2023-05-07T14:05:34;6.10;;;5.70;;
7813;SDS011;3952;48.364;16.022;2023-05-07T14:08:02;6.13;;;5.53;;
7813;SDS011;3952;48.364;16.022;2023-05-07T14:10:30;5.83;;;5.43;;
7813;SDS011;3952;48.364;16.022;2023-05-07T14:12:59;5.83;;;5.43;;
7813;SDS011;3952;48.364;16.022;2023-05-07T14:15:26;6.00;;;5.50;;
7813;SDS011;3952;48.364;16.022;2023-05-07T14:17:54;5.40;;;5.10;;
7813;SDS011;3952;48.364;16.022;2023-05-07T14:20:22;6.17;;;5.77;;
7813;SDS011;3952;48.364;16.022;2023-05-07T14:22:51;5.47;;;5.10;;
7813;SDS011;3952;48.364;16.022;2023-05-07T14:25:18;5.60;;;5.10;;
7813;SDS011;3952;48.364;16.022;2023-05-07T14:27:45;5.93;;;5.53;;
7813;SDS011;3952;48.364;16.022;2023-05-07T14:30:12;5.27;;;4.87;;
7813;SDS011;3952;48.364;16.022;2023-05-07T14:32:40;5.43;;;5.13;;
7813;SDS011;3952;48.364;16.022;2023-05-07T14:35:07;6.20;;;5.80;;
7813;SDS011;3952;48.364;16.022;2023-05-07T14:37:34;5.97;;;5.37;;
7813;SDS011;3952;48.364;16.022;2023-05-07T14:40:03;5.77;;;5.37;;
7813;SDS011;3952;48.364;16.022;2023-05-07T14:42:32;6.37;;;5.97;;
7813;SDS011;3952;48.364;16.022;2023-05-07T14:44:59;5.23;;;4.93;;
7813;SDS011;3952;48.364;16.022;2023-05-07T14:47:26;5.13;;;4.73;;
7813;SDS011;3952;48.364;16.022;2023-05-07T14:49:53;5.33;;;5.03;;
7813;SDS011;3952;48.364;16.022;2023-05-07T14:52:22;5.80;;;5.40;;
7813;SDS011;3952;48.364;16.022;2023-05-07T14:54:49;6.60;;;6.10;;
7813;SDS011;3952;48.364;16.022;2023-05-07T14:57:18;5.67;;;5.17;;
7813;SDS011;3952;48.364;16.022;2023-05-07T14:59:45;5.10;;;4.80;;
7813;SDS011;3952;48.364;16.022;2023-05-07T15:02:13;5.47;;;5.17;;
7813;SDS011;3952;48.364;16.022;2023-05-07T15:04:40;4.77;;;4.53;;